Flight Track Log - Related Links

Times and Time Zones

All times are in EST time to prevent confusion due to time zone crossing. See the FLG3861 flight status page for this flight to view local times or setup timezone preferences in your user account.

Time Position Orientation Groundspeed Altitude Reporting Facility
EST Latitude Longitude Course Direction KTS MPH feet Rate Location/Type
Sun 11:21:44 PM 42.2044 -83.3894 299° West 139 160 1,700  Level Cleveland Center
Sun 11:22:45 PM 42.2256 -83.4403 299° West 179 206 4,600 2,512 Climbing Cleveland Center
Sun 11:23:10 PM 42.2339 -83.4553 307° West 170 196 5,300 2,852 Climbing Cleveland Center
Sun 11:23:46 PM 42.2722 -83.4864 329° Northwest 247 284 7,500 3,246 Climbing Cleveland Center
Sun 11:24:11 PM 42.3033 -83.4722 19° North 251 289 8,600 2,400 Climbing Cleveland Center
Sun 11:24:46 PM 42.3303 -83.4131 58° Northeast 348 400 9,900 2,300 Climbing Cleveland Center
Sun 11:25:11 PM 42.3322 -83.3608 87° East 326 375 10,900 1,535 Climbing Cleveland Center
Sun 11:26:12 PM 42.3392 -83.2139 86° East 376 433 12,100 1,131 Climbing Cleveland Center
Sun 11:27:13 PM 42.3456 -83.0714 86° East 404 465 13,200 1,131 Climbing Cleveland Center
Sun 11:28:14 PM 42.3517 -82.9050 87° East 433 498 14,400 1,230 Climbing Cleveland Center
Sun 11:29:15 PM 42.3592 -82.7353 87° East 448 516 15,700 1,240 Climbing Cleveland Center
Sun 11:30:15 PM 42.3661 -82.5628 87° East 458 527 16,900 1,388 Climbing Cleveland Center
Sun 11:31:16 PM 42.3686 -82.3881 89° East 464 534 18,500 1,377 Climbing Cleveland Center
Sun 11:32:17 PM 42.3592 -82.2161 94° East 459 528 19,700 1,180 Climbing Cleveland Center
Sun 11:33:18 PM 42.3511 -82.0142 93° East 465 535 20,900 1,041 Climbing Cleveland Center
Sun 11:34:18 PM 42.3428 -81.8350 94° East 471 542 21,800 744 Climbing Cleveland Center
Sun 11:35:19 PM 42.3350 -81.6522 93° East 479 551 22,400 541 Climbing Cleveland Center
Sun 11:36:20 PM 42.3269 -81.4658 93° East 489 563 22,900 492 Climbing Cleveland Center
Sun 11:37:21 PM 42.3169 -81.2747 94° East 499 574 23,400 496 Climbing Cleveland Center
Sun 11:38:21 PM 42.3069 -81.0850 94° East 503 579 23,900 545 Climbing Cleveland Center
Sun 11:39:22 PM 42.2975 -80.8914 94° East 510 587 24,500 541 Climbing Cleveland Center
Sun 11:40:23 PM 42.2864 -80.6967 94° East 513 590 25,000 492 Climbing Cleveland Center
Sun 11:41:24 PM 42.2761 -80.5033 94° East 514 592 25,500 496 Climbing Cleveland Center
Sun 11:42:24 PM 42.2650 -80.3036 94° East 520 598 26,000 496 Climbing Cleveland Center
Sun 11:43:25 PM 42.2531 -80.1083 95° East 524 603 26,500 492 Climbing Cleveland Center
Sun 11:44:26 PM 42.2400 -79.9033 95° East 525 604 27,000 248 Climbing Cleveland Center
Sun 11:45:26 PM 42.2267 -79.7069 95° East 528 608 27,000  Level Cleveland Center
Sun 11:46:27 PM 42.2136 -79.5061 95° East 536 617 27,000  Level Cleveland Center
Sun 11:47:28 PM 42.2161 -79.2958 89° East 556 640 27,000 -98 Level Cleveland Center
Sun 11:48:29 PM 42.2194 -79.0833 89° East 566 651 26,800  Descending Cleveland Center
Sun 11:49:29 PM 42.2197 -78.9014 90° East 508 585 27,000 -99 Climbing Cleveland Center
Sun 11:50:30 PM 42.2219 -78.7211 89° East 482 555 26,600 -1,131 Descending Cleveland Center
Sun 11:51:31 PM 42.2244 -78.5472 89° East 473 544 24,700 -1,785 Descending Cleveland Center
Sun 11:52:31 PM 42.2242 -78.3825 90° East 450 518 23,000 -893 Descending Cleveland Center
Sun 11:53:32 PM 42.2242 -78.2250 90° East 428 493 22,900  Descending Cleveland Center
Sun 11:54:33 PM 42.2219 -78.0644 91° East 429 494 23,000 50 Climbing Cleveland Center
Sun 11:55:33 PM 42.2239 -77.8992 89° East 440 506 23,000  Level Cleveland Center
Sun 11:56:34 PM 42.2244 -77.7383 90° East 438 504 23,000  Level Cleveland Center
Sun 11:57:34 PM 42.2236 -77.5436 90° East 436 502 23,000 -496 Level Cleveland Center
Sun 11:58:35 PM 42.2547 -77.3797 76° East 460 529 22,000 -1,328 Descending Cleveland Center
Sun 11:59:36 PM 42.2989 -77.2258 69° East 451 519 20,300 -1,884 Descending Cleveland Center
Mon 12:00:36 AM 42.3433 -77.0792 68° East 435 501 18,200 -2,231 Descending Cleveland Center
Mon 12:01:37 AM 42.3842 -76.9394 68° East 414 476 15,800 -2,579 Descending Cleveland Center
Mon 12:02:37 AM 42.4183 -76.8008 71° East 398 458 13,000 -2,826 Descending Cleveland Center
Mon 12:03:38 AM 42.4522 -76.6719 70° East 372 428 10,100 -2,902 Descending Cleveland Center
Mon 12:04:39 AM 42.4831 -76.5497 71° East 351 404 7,100 -2,132 Descending Cleveland Center
Mon 12:05:39 AM 42.4944 -76.4344 82° East 317 365 5,800 -955 Descending Cleveland Center
Mon 12:06:51 AM 42.5022 -76.3025 85° East 305 351 5,000 -364 Descending New York Center
Mon 12:07:51 AM 42.4797 -76.2078 108° East 267 307 5,000 -150 Level New York Center
Mon 12:08:51 AM 42.4447 -76.1486 129° Southeast 232 267 4,700 -500 Descending New York Center
Mon 12:09:51 AM 42.4019 -76.1311 163° South 185 213 4,000 -350 Descending New York Center
Mon 12:10:51 AM 42.3650 -76.1169 164° South 155 178 4,000  Level New York Center
Mon 12:11:51 AM 42.3331 -76.0917 150° Southeast 149 171 4,000 -100 Level New York Center
Mon 12:12:51 AM 42.3008 -76.0667 150° Southeast 144 166 3,800 -400 Descending New York Center
Mon 12:13:51 AM 42.2769 -76.0422 143° Southeast 123 142 3,200 -600 Descending New York Center
Mon 12:14:51 AM 42.2528 -76.0208 147° Southeast 111 128 2,600 -550 Descending New York Center
Mon 12:15:51 AM 42.2228 -75.9933 146° Southeast 111 128 2,100 1,200 Descending New York Center
Mon 12:16:51 AM 42.1989 -75.9717 146° Southeast 111 128 5,000 1,450 Climbing New York Center
Mon 12:17:51 AM 42.1728 -75.9472 145° Southeast 111 128 5,000  Level New York Center
Mon 12:18:51 AM 42.1486 -75.9258 147° Southeast 111 128 5,000  Level New York Center

Login

Don't have an account? Register now (free) for customized features, flight alerts, and more!